Time;durP1;ratioP1;P1;durP2;ratioP2;P2;SDS_P1;SDS_P2;PMS_P1;PMS_P2;Temp;Humidity;BMP_temperature;BMP_pressure;BME280_temperature;BME280_humidity;BME280_pressure;Samples;Min_cycle;Max_cycle;Signal;HPM_P1;HPM_P2
2023/11/19 00:01:20;;;;;;;14.20;13.00;;;7.50;99.90;;;;;;5094629;28;20464;-84
2023/11/19 00:03:49;;;;;;;15.27;13.77;;;7.50;99.90;;;;;;5094911;28;20474;-84
2023/11/19 00:06:18;;;;;;;14.43;13.13;;;7.50;99.90;;;;;;5095236;28;20886;-85
2023/11/19 00:08:47;;;;;;;13.50;12.30;;;7.50;99.90;;;;;;5094563;28;20461;-84
2023/11/19 00:11:31;;;;;;;16.13;14.60;;;7.50;99.90;;;;;;5095103;28;20525;-85
2023/11/19 00:14:18;;;;;;;;;;;;;;;;;;;;;
2023/11/19 00:16:47;;;;;;;16.70;15.10;;;7.50;99.90;;;;;;5080493;28;20497;-84
2023/11/19 00:19:16;;;;;;;18.00;16.20;;;7.60;99.90;;;;;;5081358;28;20491;-84
2023/11/19 00:21:45;;;;;;;18.33;16.53;;;7.60;99.90;;;;;;5081463;28;20479;-84
2023/11/19 00:24:16;;;;;;;18.53;16.73;;;7.60;99.90;;;;;;5080741;28;20588;-85
2023/11/19 00:26:46;;;;;;;18.63;16.83;;;7.70;99.90;;;;;;5081358;28;20448;-84
2023/11/19 00:29:15;;;;;;;19.07;17.17;;;7.70;99.90;;;;;;5082241;28;20452;-84
2023/11/19 00:31:43;;;;;;;18.80;16.90;;;7.70;99.90;;;;;;5082722;28;20463;-83
2023/11/19 00:34:12;;;;;;;19.63;17.70;;;7.70;99.90;;;;;;5080328;28;20480;-83
2023/11/19 00:36:40;;;;;;;20.13;18.13;;;7.70;99.90;;;;;;5080330;28;20523;-84
2023/11/19 00:39:08;;;;;;;19.90;17.90;;;7.80;99.90;;;;;;5082578;28;20447;-84
2023/11/19 00:41:37;;;;;;;21.57;19.47;;;7.80;99.90;;;;;;5080404;28;20476;-84
2023/11/19 00:44:07;;;;;;;22.50;20.20;;;7.80;99.90;;;;;;5079624;28;20449;-84
2023/11/19 00:46:35;;;;;;;23.60;21.30;;;7.80;99.90;;;;;;5079187;28;20564;-83
2023/11/19 00:49:03;;;;;;;23.10;20.33;;;7.80;99.90;;;;;;5078519;28;20453;-83
2023/11/19 00:51:36;;;;;;;23.63;21.30;;;7.90;99.90;;;;;;5078940;28;20469;-83
2023/11/19 00:54:15;;;;;;;22.37;20.17;;;7.90;99.90;;;;;;5079700;28;20446;-85
2023/11/19 00:56:45;;;;;;;22.63;20.43;;;7.90;99.90;;;;;;5081653;28;20470;-82
2023/11/19 00:59:15;;;;;;;23.57;20.93;;;7.90;99.90;;;;;;5080057;28;20491;-83
2023/11/19 01:01:43;;;;;;;24.63;22.20;;;7.90;99.90;;;;;;5080041;28;20476;-83
2023/11/19 01:04:12;;;;;;;25.03;22.33;;;8.10;99.90;;;;;;5079587;28;20447;-83
2023/11/19 01:06:41;;;;;;;28.60;22.83;;;8.00;99.90;;;;;;5079407;28;20485;-83
2023/11/19 01:09:13;;;;;;;22.80;20.40;;;8.00;99.90;;;;;;5078950;28;20495;-82
2023/11/19 01:11:41;;;;;;;23.53;21.03;;;8.00;99.90;;;;;;5080252;28;20497;-84
2023/11/19 01:14:09;;;;;;;23.20;20.80;;;8.00;99.90;;;;;;5077769;28;20500;-85
2023/11/19 01:16:39;;;;;;;25.00;22.40;;;8.10;99.90;;;;;;5078236;28;20508;-87
2023/11/19 01:19:08;;;;;;;24.90;21.80;;;8.10;99.90;;;;;;5078545;28;20437;-86
2023/11/19 01:21:45;;;;;;;25.07;21.70;;;8.20;99.90;;;;;;5079749;28;20834;-87
2023/11/19 01:24:14;;;;;;;25.50;22.70;;;8.20;99.90;;;;;;5079353;28;20508;-87
2023/11/19 01:26:45;;;;;;;26.17;22.17;;;8.20;99.90;;;;;;5079077;28;20479;-87
2023/11/19 01:29:14;;;;;;;25.37;22.10;;;8.50;99.90;;;;;;5078979;28;20449;-87
2023/11/19 01:31:46;;;;;;;27.67;23.73;;;8.30;99.90;;;;;;5078374;28;20508;-86
2023/11/19 01:34:15;;;;;;;29.70;24.40;;;8.40;99.90;;;;;;5078715;28;20437;-86
2023/11/19 01:36:51;;;;;;;27.90;22.20;;;8.40;99.90;;;;;;5077424;28;20514;-86
2023/11/19 01:39:32;;;;;;;26.40;22.83;;;8.40;99.90;;;;;;5076691;28;20441;-86
2023/11/19 01:42:00;;;;;;;30.27;22.63;;;8.60;99.90;;;;;;5077135;28;20984;-86
2023/11/19 01:44:29;;;;;;;27.87;22.23;;;8.60;99.90;;;;;;5077479;28;20452;-86
2023/11/19 01:46:59;;;;;;;27.47;22.77;;;8.60;99.90;;;;;;5077151;28;20470;-87
2023/11/19 01:49:28;;;;;;;26.10;21.30;;;8.70;99.90;;;;;;5076937;28;20449;-86
2023/11/19 01:51:58;;;;;;;28.73;22.47;;;8.80;99.90;;;;;;5077385;28;20868;-86
2023/11/19 01:54:29;;;;;;;28.00;22.37;;;8.80;99.90;;;;;;5077158;28;20531;-85
2023/11/19 01:56:58;;;;;;;30.90;24.63;;;8.90;99.90;;;;;;5076082;28;20505;-85
2023/11/19 01:59:27;;;;;;;31.30;23.90;;;9.00;99.90;;;;;;5075813;28;20459;-85
2023/11/19 02:01:56;;;;;;;29.83;24.00;;;9.20;99.90;;;;;;5075071;28;20526;-85
2023/11/19 02:04:29;;;;;;;30.03;22.80;;;9.10;99.90;;;;;;5075242;28;20460;-84
2023/11/19 02:07:00;;;;;;;30.50;24.80;;;9.10;99.90;;;;;;5076327;28;20611;-83
2023/11/19 02:09:29;;;;;;;29.80;24.43;;;9.20;99.90;;;;;;5075091;28;20445;-83
2023/11/19 02:11:58;;;;;;;30.03;22.33;;;9.30;99.90;;;;;;5074635;28;20473;-85
2023/11/19 02:14:28;;;;;;;32.03;25.03;;;9.30;99.90;;;;;;5074837;28;20476;-85
2023/11/19 02:16:56;;;;;;;30.47;23.77;;;9.40;99.90;;;;;;5074967;28;20539;-86
2023/11/19 02:23:08;;;;;;;34.13;25.67;;;9.50;99.90;;;;;;5075164;28;21005;-86
2023/11/19 02:25:42;;;;;;;35.33;27.13;;;9.50;99.90;;;;;;5050594;28;20472;-85
2023/11/19 02:28:12;;;;;;;37.17;27.10;;;9.60;99.90;;;;;;5075861;28;20799;-86
2023/11/19 02:30:41;;;;;;;36.27;27.90;;;9.60;99.90;;;;;;5074794;28;20531;-85
2023/11/19 02:33:09;;;;;;;41.07;29.17;;;9.70;99.90;;;;;;5074651;28;20445;-85
2023/11/19 02:35:40;;;;;;;38.37;29.43;;;9.70;99.90;;;;;;5074645;28;20456;-83
2023/11/19 02:38:09;;;;;;;39.23;27.70;;;9.80;99.90;;;;;;5074569;28;20455;-82
2023/11/19 02:40:40;;;;;;;47.60;31.17;;;9.80;99.90;;;;;;5074533;28;20477;-82
2023/11/19 02:43:09;;;;;;;41.93;30.80;;;9.90;99.90;;;;;;5075131;28;20540;-85
2023/11/19 02:45:40;;;;;;;45.37;30.83;;;9.90;99.90;;;;;;5074394;28;20513;-85
2023/11/19 02:48:09;;;;;;;39.13;28.00;;;9.90;99.90;;;;;;5074375;28;20957;-85
2023/11/19 02:50:38;;;;;;;40.13;29.30;;;10.10;99.90;;;;;;5074681;28;20515;-85
2023/11/19 02:53:06;;;;;;;41.33;28.73;;;10.00;99.90;;;;;;5074728;28;20451;-85
2023/11/19 02:55:37;;;;;;;42.23;29.27;;;10.10;99.90;;;;;;5075883;28;20449;-85
2023/11/19 02:58:19;;;;;;;42.47;28.50;;;10.10;99.90;;;;;;5074379;28;20571;-86
2023/11/19 03:00:57;;;;;;;40.50;29.27;;;10.10;99.90;;;;;;5074361;28;20482;-85
2023/11/19 03:03:28;;;;;;;38.03;28.30;;;10.10;99.90;;;;;;5074215;28;20451;-85
2023/11/19 03:05:57;;;;;;;40.80;27.97;;;10.20;99.90;;;;;;5075489;28;20888;-86
2023/11/19 03:08:49;;;;;;;44.23;29.00;;;10.20;99.90;;;;;;5074498;28;20448;-85
2023/11/19 03:11:26;;;;;;;40.50;27.23;;;10.20;99.90;;;;;;5074125;28;20476;-84
2023/11/19 03:13:55;;;;;;;37.20;28.30;;;10.30;99.90;;;;;;5074179;28;20445;-85
2023/11/19 03:16:24;;;;;;;44.23;29.90;;;10.30;99.90;;;;;;5074165;28;20445;-85
2023/11/19 03:18:53;;;;;;;38.90;29.17;;;10.40;99.90;;;;;;5074149;28;20445;-84
2023/11/19 03:21:28;;;;;;;39.93;27.97;;;10.40;99.90;;;;;;5073847;28;20555;-85
2023/11/19 03:23:59;;;;;;;41.63;28.67;;;10.40;99.90;;;;;;5074033;28;20444;-85
2023/11/19 03:26:28;;;;;;;41.03;27.63;;;10.40;99.90;;;;;;5073467;28;20472;-84
2023/11/19 03:28:56;;;;;;;45.70;29.40;;;10.50;99.90;;;;;;5073881;28;20445;-85
2023/11/19 03:31:26;;;;;;;44.67;28.20;;;10.50;99.90;;;;;;5073562;28;20479;-84
2023/11/19 03:33:55;;;;;;;41.67;28.50;;;10.50;99.90;;;;;;5073574;28;20465;-84
2023/11/19 03:36:32;;;;;;;39.13;27.20;;;10.60;99.90;;;;;;5074858;28;20775;-85
2023/11/19 03:39:01;;;;;;;39.13;27.00;;;10.60;99.90;;;;;;5073432;28;20437;-85
2023/11/19 03:41:29;;;;;;;40.10;27.30;;;10.60;99.90;;;;;;5073458;28;20496;-85
2023/11/19 03:44:09;;;;;;;48.77;28.00;;;10.70;99.90;;;;;;5075399;28;20441;-83
2023/11/19 03:46:39;;;;;;;40.03;26.10;;;10.70;99.90;;;;;;5074479;28;20475;-84
2023/11/19 03:49:07;;;;;;;40.60;26.23;;;10.70;99.90;;;;;;5073639;28;20449;-84
2023/11/19 03:51:36;;;;;;;41.10;26.60;;;10.70;99.90;;;;;;5075508;28;20871;-83
2023/11/19 03:54:06;;;;;;;40.73;27.00;;;10.70;99.90;;;;;;5078587;28;20796;-85
2023/11/19 03:56:34;;;;;;;40.50;27.20;;;10.80;99.90;;;;;;5077133;28;20819;-83
2023/11/19 03:59:02;;;;;;;39.20;25.20;;;10.80;99.90;;;;;;5076699;28;20817;-84
2023/11/19 04:01:31;;;;;;;42.83;27.10;;;10.80;99.90;;;;;;5076758;28;20556;-84
2023/11/19 04:04:01;;;;;;;41.67;27.50;;;10.80;99.90;;;;;;5076287;28;21028;-85
2023/11/19 04:06:29;;;;;;;44.87;28.70;;;10.90;99.90;;;;;;5076796;28;20519;-85
2023/11/19 04:08:58;;;;;;;43.93;29.20;;;10.90;99.90;;;;;;5076662;28;20511;-85
2023/11/19 04:11:26;;;;;;;40.47;29.23;;;10.90;99.90;;;;;;5076538;28;20473;-83
2023/11/19 04:13:54;;;;;;;43.20;29.43;;;10.90;99.90;;;;;;5078218;28;20448;-85
2023/11/19 04:16:28;;;;;;;40.17;26.33;;;11.00;99.90;;;;;;5076464;28;21020;-85
2023/11/19 04:18:57;;;;;;;41.03;27.30;;;11.00;99.90;;;;;;5076661;28;20455;-85
2023/11/19 04:21:27;;;;;;;40.57;26.03;;;11.10;99.90;;;;;;5076398;28;20548;-84
2023/11/19 04:23:56;;;;;;;42.73;25.00;;;11.00;99.90;;;;;;5077909;28;20523;-84
2023/11/19 04:26:24;;;;;;;38.83;23.93;;;11.10;99.90;;;;;;5076371;28;20445;-84
2023/11/19 04:28:52;;;;;;;45.47;26.70;;;11.10;99.90;;;;;;5076415;28;20491;-83
2023/11/19 04:31:21;;;;;;;47.57;26.70;;;11.10;99.90;;;;;;5078839;28;20473;-84
2023/11/19 04:33:49;;;;;;;43.63;27.03;;;11.10;99.90;;;;;;5078856;28;20453;-84
2023/11/19 04:36:20;;;;;;;46.00;28.60;;;11.20;99.90;;;;;;5080023;28;20476;-84
2023/11/19 04:38:50;;;;;;;38.70;25.93;;;11.10;99.90;;;;;;5077876;28;20934;-84
2023/11/19 04:41:18;;;;;;;44.33;25.87;;;11.20;99.90;;;;;;5076545;28;20481;-84
2023/11/19 04:43:47;;;;;;;39.50;25.90;;;11.20;99.90;;;;;;5076403;28;20449;-84
2023/11/19 04:46:15;;;;;;;36.17;25.90;;;11.20;99.90;;;;;;5076509;28;20961;-84
2023/11/19 04:48:44;;;;;;;48.40;25.17;;;11.30;99.90;;;;;;5076560;28;20607;-85
2023/11/19 04:51:12;;;;;;;35.67;24.40;;;11.30;99.90;;;;;;5076604;28;20469;-85
2023/11/19 04:53:40;;;;;;;38.60;23.87;;;11.30;99.90;;;;;;5078142;28;20520;-85
2023/11/19 04:56:11;;;;;;;38.37;24.33;;;11.30;99.90;;;;;;5076891;28;20449;-85
2023/11/19 04:58:39;;;;;;;33.33;22.90;;;11.40;99.90;;;;;;5076641;28;20449;-85
2023/11/19 05:01:14;;;;;;;37.10;24.20;;;11.40;99.90;;;;;;5076537;28;20453;-85
2023/11/19 05:03:42;;;;;;;44.37;24.83;;;11.40;99.90;;;;;;5076872;28;20456;-85
2023/11/19 05:06:11;;;;;;;33.30;21.97;;;11.40;99.90;;;;;;5076522;28;20447;-85
2023/11/19 05:08:39;;;;;;;38.53;23.40;;;11.40;99.90;;;;;;5076790;28;20989;-85
2023/11/19 05:11:07;;;;;;;37.00;22.67;;;11.40;99.90;;;;;;5076758;28;20469;-85
2023/11/19 05:13:37;;;;;;;37.37;22.27;;;11.50;99.90;;;;;;5076912;28;20942;-85
2023/11/19 05:16:06;;;;;;;31.20;21.10;;;11.50;99.90;;;;;;5076708;28;20449;-85
2023/11/19 05:18:34;;;;;;;35.67;21.70;;;11.50;99.90;;;;;;5076774;28;20437;-84
2023/11/19 05:21:03;;;;;;;33.30;20.53;;;11.50;99.90;;;;;;5078017;28;20500;-85
2023/11/19 05:23:31;;;;;;;37.50;22.03;;;11.50;99.90;;;;;;5079473;28;20503;-86
2023/11/19 05:25:59;;;;;;;33.60;19.80;;;11.60;99.90;;;;;;5076368;28;20993;-85
2023/11/19 05:28:28;;;;;;;34.27;18.93;;;11.60;99.90;;;;;;5076323;28;20568;-85
2023/11/19 05:30:58;;;;;;;34.47;17.57;;;11.60;99.90;;;;;;5075806;28;20472;-85
2023/11/19 05:33:26;;;;;;;28.63;16.33;;;11.60;99.90;;;;;;5076055;28;20449;-85
2023/11/19 05:35:54;;;;;;;36.00;18.43;;;11.60;99.90;;;;;;5076185;28;20453;-85
2023/11/19 05:38:23;;;;;;;29.23;16.93;;;11.60;99.90;;;;;;5075994;28;20889;-85
2023/11/19 05:40:51;;;;;;;37.23;17.00;;;11.60;99.90;;;;;;5075496;28;20460;-84
2023/11/19 05:43:19;;;;;;;29.83;16.67;;;11.60;99.90;;;;;;5075688;28;20523;-84
2023/11/19 05:45:48;;;;;;;32.17;17.30;;;11.60;99.90;;;;;;5075550;28;20495;-84
2023/11/19 05:48:18;;;;;;;31.60;16.53;;;11.60;99.90;;;;;;5075808;28;21076;-85
2023/11/19 05:50:47;;;;;;;33.53;16.60;;;11.70;99.90;;;;;;5075710;28;20469;-84
2023/11/19 05:53:15;;;;;;;31.57;15.50;;;11.60;99.90;;;;;;5076599;28;20453;-86
2023/11/19 05:55:54;;;;;;;24.17;14.07;;;11.60;99.90;;;;;;5077315;28;20453;-84
2023/11/19 05:58:28;;;;;;;25.37;14.63;;;11.60;99.90;;;;;;5075473;28;20946;-83
2023/11/19 06:00:57;;;;;;;32.80;14.60;;;11.70;99.90;;;;;;5075912;28;20544;-84
2023/11/19 06:03:26;;;;;;;26.37;13.93;;;11.70;99.90;;;;;;5074894;28;20552;-84
2023/11/19 06:05:55;;;;;;;31.13;13.60;;;11.70;99.90;;;;;;5076908;28;20422;-84
2023/11/19 06:08:23;;;;;;;22.20;12.97;;;11.70;99.90;;;;;;5075271;28;20480;-84
2023/11/19 06:10:51;;;;;;;30.93;13.93;;;11.70;99.90;;;;;;5075034;28;20453;-85
2023/11/19 06:13:20;;;;;;;37.87;13.60;;;11.60;99.90;;;;;;5074155;28;21010;-83
2023/11/19 06:15:51;;;;;;;33.93;14.37;;;11.70;99.90;;;;;;5075578;28;20775;-84
2023/11/19 06:18:20;;;;;;;22.50;12.13;;;11.70;99.90;;;;;;5075590;28;20490;-83
2023/11/19 06:20:50;;;;;;;28.47;12.17;;;11.70;99.90;;;;;;5075570;28;20977;-83
2023/11/19 06:23:19;;;;;;;35.47;12.40;;;11.70;99.90;;;;;;5074602;28;20453;-84
2023/11/19 06:25:47;;;;;;;22.53;10.47;;;11.70;99.90;;;;;;5074545;28;20793;-84
2023/11/19 06:28:16;;;;;;;23.73;11.37;;;11.70;99.90;;;;;;5075639;28;20469;-85
2023/11/19 06:30:44;;;;;;;27.67;10.77;;;11.70;99.90;;;;;;5076686;28;20510;-84
2023/11/19 06:33:16;;;;;;;29.80;10.70;;;11.70;99.90;;;;;;5074800;28;20809;-82
2023/11/19 06:35:44;;;;;;;28.60;10.20;;;11.70;99.90;;;;;;5076967;28;20800;-83
2023/11/19 06:38:14;;;;;;;29.83;10.17;;;11.70;99.90;;;;;;5075084;28;20502;-84
2023/11/19 06:40:42;;;;;;;32.10;9.37;;;11.70;99.90;;;;;;5074811;28;20500;-82
2023/11/19 06:43:11;;;;;;;27.63;9.70;;;11.70;99.90;;;;;;5076030;28;20437;-83
2023/11/19 06:45:39;;;;;;;23.40;8.70;;;11.70;99.90;;;;;;5075157;28;20485;-83
2023/11/19 06:48:07;;;;;;;23.40;8.97;;;11.70;99.90;;;;;;5076945;28;20469;-83
2023/11/19 06:50:36;;;;;;;25.80;7.83;;;11.70;99.90;;;;;;5075626;28;20437;-83
2023/11/19 06:53:06;;;;;;;28.93;9.50;;;11.70;99.90;;;;;;5074784;28;20481;-84
2023/11/19 06:55:35;;;;;;;27.53;9.47;;;11.80;99.90;;;;;;5074582;28;20536;-82
2023/11/19 06:58:04;;;;;;;27.40;9.00;;;11.70;99.90;;;;;;5075001;28;20977;-82
2023/11/19 07:00:32;;;;;;;33.13;10.07;;;11.70;99.90;;;;;;5074630;28;20495;-82
2023/11/19 07:03:01;;;;;;;31.47;10.13;;;11.80;99.90;;;;;;5074735;28;20491;-83
2023/11/19 07:05:30;;;;;;;26.87;8.97;;;11.70;99.90;;;;;;5074748;28;20537;-83
2023/11/19 07:07:58;;;;;;;26.17;9.53;;;11.70;99.90;;;;;;5073988;28;20472;-82
2023/11/19 07:10:27;;;;;;;25.87;7.80;;;11.70;99.90;;;;;;5073969;28;20961;-83
2023/11/19 07:12:57;;;;;;;32.80;8.83;;;11.80;99.90;;;;;;5073936;28;20445;-83
2023/11/19 07:15:25;;;;;;;21.37;7.07;;;11.70;99.90;;;;;;5074431;28;20438;-84
2023/11/19 07:17:54;;;;;;;30.20;9.30;;;11.70;99.90;;;;;;5075224;28;20472;-84
2023/11/19 07:20:26;;;;;;;27.43;8.47;;;11.70;99.90;;;;;;5074931;28;20438;-84
2023/11/19 07:22:56;;;;;;;27.70;8.47;;;11.70;99.90;;;;;;5074885;28;20544;-84
2023/11/19 07:25:26;;;;;;;30.10;8.70;;;11.70;99.90;;;;;;5074593;28;20539;-84
2023/11/19 07:27:56;;;;;;;27.20;8.90;;;11.70;99.90;;;;;;5078276;28;20898;-83
2023/11/19 07:30:24;;;;;;;24.10;8.23;;;11.70;99.90;;;;;;5078366;28;20449;-82
2023/11/19 07:32:53;;;;;;;24.47;8.37;;;11.70;99.90;;;;;;5079489;28;20465;-83
2023/11/19 07:35:21;;;;;;;21.23;8.40;;;11.70;99.90;;;;;;5078255;28;20456;-83
2023/11/19 07:37:50;;;;;;;22.77;8.30;;;11.70;99.90;;;;;;5078039;28;20514;-82
2023/11/19 07:40:19;;;;;;;22.33;7.20;;;11.70;99.90;;;;;;5077816;28;20444;-81
2023/11/19 07:42:48;;;;;;;23.57;7.93;;;11.70;99.90;;;;;;5078205;28;20452;-80
2023/11/19 07:45:17;;;;;;;22.33;6.93;;;11.70;99.90;;;;;;5079455;28;20478;-83
2023/11/19 07:47:46;;;;;;;27.60;7.20;;;11.70;99.90;;;;;;5077570;28;20457;-82
2023/11/19 07:50:16;;;;;;;30.03;9.57;;;11.70;99.90;;;;;;5078010;28;20556;-82
2023/11/19 07:52:45;;;;;;;31.30;8.70;;;11.70;99.90;;;;;;5078544;28;20433;-83
2023/11/19 07:55:13;;;;;;;25.27;8.43;;;11.70;99.90;;;;;;5078293;28;20528;-81
2023/11/19 07:57:41;;;;;;;26.70;7.50;;;11.70;99.90;;;;;;5077810;28;20449;-80
2023/11/19 08:00:12;;;;;;;29.30;10.23;;;11.70;99.90;;;;;;5078166;28;20488;-81
2023/11/19 08:02:42;;;;;;;21.57;8.60;;;11.70;99.90;;;;;;5077658;28;20467;-83
2023/11/19 08:05:11;;;;;;;27.90;8.67;;;11.70;99.90;;;;;;5078014;28;20507;-83
2023/11/19 08:07:39;;;;;;;27.40;7.30;;;11.70;99.90;;;;;;5078462;28;20953;-82
2023/11/19 08:10:10;;;;;;;28.17;8.97;;;11.70;99.90;;;;;;5077298;28;20992;-82
2023/11/19 08:12:39;;;;;;;32.00;8.70;;;11.70;99.90;;;;;;5078749;28;20556;-82
2023/11/19 08:15:08;;;;;;;23.30;7.60;;;11.70;99.90;;;;;;5078621;28;20551;-83
2023/11/19 08:17:36;;;;;;;32.97;10.33;;;11.70;99.90;;;;;;5079102;28;20441;-81
2023/11/19 08:20:10;;;;;;;29.37;8.63;;;11.70;99.90;;;;;;5076838;28;20457;-81
2023/11/19 08:22:39;;;;;;;25.60;8.77;;;11.70;99.90;;;;;;5077668;28;20495;-84
2023/11/19 08:25:08;;;;;;;24.23;7.63;;;11.70;99.90;;;;;;5078229;28;20559;-83
2023/11/19 08:27:36;;;;;;;30.70;7.83;;;11.70;99.90;;;;;;5078933;28;20445;-83
2023/11/19 08:30:05;;;;;;;25.73;8.83;;;11.70;99.90;;;;;;5077443;28;20515;-84
2023/11/19 08:32:35;;;;;;;32.50;8.60;;;11.70;99.90;;;;;;5077525;28;20469;-83
2023/11/19 08:35:04;;;;;;;28.53;8.57;;;11.70;99.90;;;;;;5077717;28;20968;-81
2023/11/19 08:37:33;;;;;;;24.70;8.03;;;11.70;99.90;;;;;;5077471;28;20452;-84
2023/11/19 08:40:02;;;;;;;25.43;8.13;;;11.80;99.90;;;;;;5079340;28;20437;-83
2023/11/19 08:42:30;;;;;;;19.97;7.20;;;11.80;99.90;;;;;;5077960;28;20519;-86
2023/11/19 08:44:59;;;;;;;21.40;7.20;;;11.80;99.90;;;;;;5078009;28;20532;-81
2023/11/19 08:47:27;;;;;;;23.50;8.53;;;11.80;99.90;;;;;;5078254;28;20445;-84
2023/11/19 08:49:56;;;;;;;23.93;8.13;;;11.80;99.90;;;;;;5078549;28;20480;-82
2023/11/19 08:52:27;;;;;;;24.17;7.37;;;11.90;99.90;;;;;;5078554;28;20527;-80
2023/11/19 08:54:57;;;;;;;30.07;9.00;;;11.90;99.90;;;;;;5078261;28;20457;-82
2023/11/19 08:57:25;;;;;;;22.60;8.07;;;11.90;99.90;;;;;;5077891;28;21019;-82
2023/11/19 08:59:53;;;;;;;21.37;8.13;;;11.90;99.90;;;;;;5078171;28;20471;-81
2023/11/19 09:02:21;;;;;;;27.10;8.10;;;11.90;99.90;;;;;;5077961;28;20469;-81
2023/11/19 09:04:49;;;;;;;29.50;8.40;;;12.00;99.90;;;;;;5078412;28;20547;-80
2023/11/19 09:07:21;;;;;;;20.17;6.70;;;12.00;99.90;;;;;;5076770;28;20433;-83
2023/11/19 09:09:49;;;;;;;17.97;7.53;;;12.00;99.90;;;;;;5076771;28;20465;-82
2023/11/19 09:12:19;;;;;;;32.40;8.43;;;12.00;99.90;;;;;;5077590;28;20464;-83
2023/11/19 09:14:47;;;;;;;28.83;9.77;;;12.00;99.90;;;;;;5077138;28;20441;-83
2023/11/19 09:17:17;;;;;;;30.03;8.67;;;12.00;99.90;;;;;;5077582;28;20836;-80
2023/11/19 09:19:46;;;;;;;33.40;8.97;;;12.10;99.90;;;;;;5076852;28;20454;-83
2023/11/19 09:22:14;;;;;;;24.20;6.23;;;12.10;99.90;;;;;;5077487;28;20473;-82
2023/11/19 09:24:44;;;;;;;26.00;8.23;;;12.10;99.90;;;;;;5076787;28;20946;-81
2023/11/19 09:27:12;;;;;;;16.70;7.10;;;12.00;99.90;;;;;;5077929;28;20449;-82
2023/11/19 09:29:43;;;;;;;24.50;7.97;;;12.10;99.90;;;;;;5076714;28;20563;-83
2023/11/19 09:32:11;;;;;;;24.60;8.00;;;12.10;99.90;;;;;;5077953;28;20548;-82
2023/11/19 09:34:40;;;;;;;27.33;7.30;;;12.00;99.90;;;;;;5077547;28;20536;-81
2023/11/19 09:37:08;;;;;;;27.17;7.40;;;12.00;99.90;;;;;;5075620;28;20445;-81
2023/11/19 09:39:43;;;;;;;28.50;7.97;;;12.00;99.90;;;;;;5075779;28;20969;-82
2023/11/19 09:42:11;;;;;;;23.07;8.50;;;12.00;99.90;;;;;;5075894;28;20453;-82
2023/11/19 09:44:43;;;;;;;31.40;9.10;;;12.00;99.90;;;;;;5076131;28;20467;-84
2023/11/19 09:47:15;;;;;;;30.13;9.87;;;12.00;99.90;;;;;;5075738;28;20535;-81
2023/11/19 09:49:44;;;;;;;22.83;7.70;;;12.00;99.90;;;;;;5076010;28;20464;-82
2023/11/19 09:52:12;;;;;;;31.07;8.63;;;12.00;99.90;;;;;;5075725;28;20475;-83
2023/11/19 09:54:41;;;;;;;31.27;8.37;;;12.00;99.90;;;;;;5078313;28;20433;-84
2023/11/19 09:57:11;;;;;;;28.87;8.63;;;12.00;99.90;;;;;;5076530;28;20456;-84
2023/11/19 09:59:40;;;;;;;28.83;7.90;;;11.90;99.90;;;;;;5075995;28;20441;-81
2023/11/19 10:02:11;;;;;;;36.40;10.70;;;11.90;99.90;;;;;;5076541;28;20473;-83
2023/11/19 10:04:40;;;;;;;24.57;8.23;;;11.90;99.90;;;;;;5076068;28;20484;-83
2023/11/19 10:07:09;;;;;;;27.10;8.47;;;11.90;99.90;;;;;;5075789;28;20570;-84
2023/11/19 10:09:37;;;;;;;31.57;9.83;;;11.90;99.90;;;;;;5074946;28;20954;-84
2023/11/19 10:12:06;;;;;;;29.27;9.53;;;11.90;99.90;;;;;;5074843;28;20473;-83
2023/11/19 10:14:39;;;;;;;24.90;8.83;;;11.90;99.90;;;;;;5075459;28;20536;-84
2023/11/19 10:17:10;;;;;;;30.87;8.73;;;11.90;99.90;;;;;;5074823;28;20437;-83
2023/11/19 10:19:41;;;;;;;29.87;9.47;;;11.90;99.90;;;;;;5075706;28;20476;-84
2023/11/19 10:22:09;;;;;;;22.13;7.70;;;11.90;99.90;;;;;;5074874;28;20461;-84
2023/11/19 10:24:40;;;;;;;25.57;8.77;;;12.00;99.90;;;;;;5075018;28;20445;-83
2023/11/19 10:27:16;;;;;;;29.23;9.27;;;12.00;99.90;;;;;;5075012;28;20805;-85
2023/11/19 10:29:48;;;;;;;25.93;9.53;;;12.00;99.90;;;;;;5076384;28;20456;-84
2023/11/19 10:32:17;;;;;;;23.90;8.57;;;12.10;99.90;;;;;;5074645;28;20518;-83
2023/11/19 10:35:06;;;;;;;28.87;8.33;;;12.10;99.90;;;;;;5074903;28;20451;-83
2023/11/19 10:37:37;;;;;;;30.73;7.80;;;12.10;99.90;;;;;;5074900;28;20441;-83
2023/11/19 10:40:10;;;;;;;19.80;7.03;;;12.10;99.90;;;;;;5074812;28;20447;-80
2023/11/19 10:42:38;;;;;;;21.93;7.73;;;12.10;99.90;;;;;;5076104;28;20491;-81
2023/11/19 10:45:23;;;;;;;22.90;7.20;;;12.10;99.90;;;;;;5075031;28;20481;-83
2023/11/19 10:47:56;;;;;;;22.93;7.00;;;12.10;99.90;;;;;;5079019;28;20449;-84
2023/11/19 10:50:25;;;;;;;23.30;7.13;;;12.10;99.90;;;;;;5080595;28;20551;-86
2023/11/19 10:52:58;;;;;;;21.83;6.43;;;12.00;99.90;;;;;;5077648;28;20970;-84
2023/11/19 10:55:29;;;;;;;23.03;7.17;;;12.00;99.90;;;;;;5076030;28;20441;-84
2023/11/19 10:58:01;;;;;;;19.70;7.80;;;12.00;99.90;;;;;;5076216;28;20443;-83
2023/11/19 11:00:32;;;;;;;20.90;6.67;;;12.00;99.90;;;;;;5075576;28;20456;-83
2023/11/19 11:03:06;;;;;;;24.40;8.03;;;12.00;99.90;;;;;;5076247;28;20430;-83
2023/11/19 11:05:40;;;;;;;20.60;7.87;;;12.10;99.90;;;;;;5075096;28;20483;-84
2023/11/19 11:08:10;;;;;;;24.27;7.80;;;12.00;99.90;;;;;;5075392;28;20451;-83
2023/11/19 11:10:45;;;;;;;23.80;7.57;;;12.10;99.90;;;;;;5074819;28;20548;-82
2023/11/19 11:13:18;;;;;;;22.97;7.63;;;12.10;99.90;;;;;;5075752;28;20441;-83
2023/11/19 11:15:47;;;;;;;25.93;7.70;;;12.10;99.90;;;;;;5075837;28;20480;-83
2023/11/19 11:18:18;;;;;;;25.23;8.17;;;12.20;99.90;;;;;;5077039;28;20441;-83
2023/11/19 11:20:47;;;;;;;29.90;8.10;;;12.20;99.90;;;;;;5075489;28;20509;-84
2023/11/19 11:23:55;;;;;;;20.83;7.93;;;12.20;99.90;;;;;;5076210;28;20453;-84
2023/11/19 11:26:49;;;;;;;20.70;8.30;;;12.20;99.90;;;;;;5075488;28;20456;-82
2023/11/19 11:29:25;;;;;;;25.67;7.40;;;12.30;99.90;;;;;;5075741;28;20441;-84
2023/11/19 11:32:08;;;;;;;25.03;8.17;;;12.30;99.90;;;;;;5075126;28;20472;-83
2023/11/19 11:34:51;;;;;;;24.90;7.93;;;12.30;99.90;;;;;;5075147;28;20444;-81
2023/11/19 11:37:28;;;;;;;24.00;8.63;;;12.30;99.90;;;;;;5075074;28;20452;-81
2023/11/19 11:39:59;;;;;;;20.53;8.20;;;12.40;99.90;;;;;;5075099;28;20887;-83
2023/11/19 11:42:35;;;;;;;26.17;8.93;;;12.40;99.90;;;;;;5075133;28;20471;-83
2023/11/19 11:45:12;;;;;;;27.03;9.03;;;12.50;99.90;;;;;;5075244;28;20444;-84
2023/11/19 11:48:16;;;;;;;20.20;7.77;;;12.40;99.90;;;;;;5075327;28;20498;-83
2023/11/19 11:50:57;;;;;;;17.87;7.80;;;12.40;99.90;;;;;;4998226;28;20551;-83
2023/11/19 11:53:27;;;;;;;25.13;7.20;;;12.40;99.90;;;;;;5067211;28;20455;-83
2023/11/19 11:55:59;;;;;;;28.50;8.97;;;12.40;99.90;;;;;;5075017;28;20472;-82
2023/11/19 11:58:33;;;;;;;25.57;8.20;;;12.40;99.90;;;;;;5075249;28;20437;-82
2023/11/19 12:01:06;;;;;;;23.17;7.80;;;12.40;99.90;;;;;;5074646;28;20468;-85
2023/11/19 12:03:35;;;;;;;19.83;8.53;;;12.40;99.90;;;;;;5074382;28;20500;-80
2023/11/19 12:06:05;;;;;;;22.53;7.70;;;12.40;99.90;;;;;;5074600;28;20447;-82
2023/11/19 12:08:36;;;;;;;23.50;7.37;;;12.40;99.90;;;;;;5074414;28;20527;-83
2023/11/19 12:11:21;;;;;;;26.70;8.10;;;12.40;99.90;;;;;;5074523;28;20527;-82
2023/11/19 12:14:02;;;;;;;23.17;6.87;;;12.40;99.90;;;;;;5078531;28;20471;-82
2023/11/19 12:16:35;;;;;;;24.90;7.90;;;12.40;99.90;;;;;;5077967;28;20900;-83
2023/11/19 12:19:05;;;;;;;24.60;9.03;;;12.40;99.90;;;;;;5078287;28;20437;-82
2023/11/19 12:21:37;;;;;;;22.80;7.03;;;12.40;99.90;;;;;;5079190;28;20456;-83
2023/11/19 12:24:08;;;;;;;24.80;7.33;;;12.40;99.90;;;;;;5078214;28;20449;-84
2023/11/19 12:26:38;;;;;;;28.83;8.30;;;12.40;99.90;;;;;;5078445;28;20449;-83
2023/11/19 12:29:07;;;;;;;26.80;7.07;;;12.40;99.90;;;;;;5078012;28;20866;-84
2023/11/19 12:31:37;;;;;;;19.33;6.73;;;12.40;99.90;;;;;;5077218;28;21011;-83
2023/11/19 12:34:11;;;;;;;27.40;7.80;;;12.40;99.90;;;;;;5077463;28;20462;-83
2023/11/19 12:36:43;;;;;;;20.80;7.10;;;12.40;99.90;;;;;;5077590;28;20471;-84
2023/11/19 12:39:14;;;;;;;28.10;8.10;;;12.30;99.90;;;;;;5076853;28;20449;-83
2023/11/19 12:41:52;;;;;;;21.47;7.30;;;12.30;99.90;;;;;;5077339;28;20552;-83
2023/11/19 12:44:21;;;;;;;22.30;6.10;;;12.20;99.90;;;;;;5081026;28;20441;-83
2023/11/19 12:47:06;;;;;;;16.40;6.57;;;12.20;99.90;;;;;;5077988;28;20506;-84
2023/11/19 12:49:35;;;;;;;15.20;6.73;;;12.20;99.90;;;;;;5077877;28;20441;-83
2023/11/19 12:52:13;;;;;;;24.10;6.87;;;12.10;99.90;;;;;;5077414;28;20527;-82
2023/11/19 12:54:41;;;;;;;10.93;4.20;;;12.10;99.90;;;;;;5077227;28;20506;-80
2023/11/19 12:57:10;;;;;;;8.27;4.10;;;12.00;99.90;;;;;;5077269;28;20799;-80